Time;durP1;ratioP1;P1;durP2;ratioP2;P2;SDS_P1;SDS_P2;PMS_P1;PMS_P2;Temp;Humidity;BMP_temperature;BMP_pressure;BME280_temperature;BME280_humidity;BME280_pressure;Samples;Min_cycle;Max_cycle;Signal;HPM_P1;HPM_P2
2021/11/09 00:02:09;;;;;;;;;;;;;;;12.48;82.80;100056.97;4992571;28;838;-62
2021/11/09 00:04:42;;;;;;;;;;;;;;;12.55;82.19;100070.00;4992466;28;1000;-62
2021/11/09 00:09:56;;;;;;;;;;;;;;;12.56;81.64;100079.88;4992080;28;648;-62
2021/11/09 00:12:24;;;;;;;;;;;;;;;12.59;81.43;100070.75;4992019;28;1957;-62
2021/11/09 00:14:51;;;;;;;;;;;;;;;12.53;81.91;100067.63;4991973;28;830;-62
2021/11/09 00:17:17;;;;;;;;;;;;;;;12.53;81.80;100058.53;4992084;28;1002;-62
2021/11/09 00:19:43;;;;;;;;;;;;;;;12.55;81.36;100070.00;4991774;28;1288;-62
2021/11/09 00:22:10;;;;;;;;;;;;;;;12.49;81.36;100077.97;4991942;28;819;-62
2021/11/09 00:24:36;;;;;;;;;;;;;;;12.48;81.38;100064.50;4991919;28;835;-61
2021/11/09 00:27:03;;;;;;;;;;;;;;;12.40;81.90;100064.56;4991956;28;854;-62
2021/11/09 00:29:30;;;;;;;;;;;;;;;12.37;81.97;100078.44;4991777;28;890;-61
2021/11/09 00:31:56;;;;;;;;;;;;;;;12.37;81.92;100076.47;4991896;28;1914;-61
2021/11/09 00:34:23;;;;;;;;;;;;;;;12.35;82.09;100081.63;4991956;28;800;-62
2021/11/09 00:36:49;;;;;;;;;;;;;;;12.35;81.64;100089.94;4991835;28;866;-61
2021/11/09 00:39:16;;;;;;;;;;;;;;;12.37;81.55;100106.94;4991961;28;901;-61
2021/11/09 00:41:43;;;;;;;;;;;;;;;12.34;81.78;100110.53;4993212;28;819;-61
2021/11/09 00:44:09;;;;;;;;;;;;;;;12.31;82.04;100099.47;4995718;28;894;-61
2021/11/09 00:46:35;;;;;;;;;;;;;;;12.30;82.06;100106.22;4995861;28;811;-61
2021/11/09 00:49:02;;;;;;;;;;;;;;;12.35;81.57;100103.00;4995806;28;851;-61
2021/11/09 00:51:29;;;;;;;;;;;;;;;12.33;81.78;100119.25;4995326;28;1886;-62
2021/11/09 00:53:55;;;;;;;;;;;;;;;12.35;81.76;100116.88;4995595;28;760;-62
2021/11/09 00:56:22;;;;;;;;;;;;;;;12.30;81.82;100111.78;4995262;28;866;-62
2021/11/09 00:58:47;;;;;;;;;;;;;;;12.24;81.94;100114.97;4995116;28;842;-61
2021/11/09 01:01:14;;;;;;;;;;;;;;;12.18;82.44;100101.94;4993905;28;1287;-62
2021/11/09 01:03:40;;;;;;;;;;;;;;;12.18;82.39;100102.75;4993830;28;1393;-61
2021/11/09 01:06:07;;;;;;;;;;;;;;;12.08;82.39;100102.78;4995074;28;775;-62
2021/11/09 01:08:33;;;;;;;;;;;;;;;11.98;83.18;100102.47;4995342;28;803;-62
2021/11/09 01:11:00;;;;;;;;;;;;;;;12.06;83.25;100122.63;4994942;28;1928;-62
2021/11/09 01:13:27;;;;;;;;;;;;;;;12.18;82.17;100107.47;4995091;28;804;-62
2021/11/09 01:15:55;;;;;;;;;;;;;;;12.13;82.56;100108.72;4995078;28;894;-62
2021/11/09 01:18:24;;;;;;;;;;;;;;;12.21;82.19;100112.22;4994825;28;1378;-63
2021/11/09 01:20:51;;;;;;;;;;;;;;;12.21;81.84;100106.69;4994806;28;878;-62
2021/11/09 01:23:18;;;;;;;;;;;;;;;12.11;82.01;100097.25;4993481;28;1374;-61
2021/11/09 01:25:44;;;;;;;;;;;;;;;12.08;82.25;100117.47;4994705;28;851;-62
2021/11/09 01:28:11;;;;;;;;;;;;;;;12.18;81.84;100118.56;4994581;28;839;-62
2021/11/09 01:30:37;;;;;;;;;;;;;;;12.09;82.37;100121.00;4994501;28;1910;-62
2021/11/09 01:33:04;;;;;;;;;;;;;;;12.14;81.72;100128.88;4994543;28;815;-62
2021/11/09 01:35:30;;;;;;;;;;;;;;;12.09;82.14;100134.88;4994580;28;854;-62
2021/11/09 01:37:57;;;;;;;;;;;;;;;12.11;82.19;100141.56;4994442;28;812;-62
2021/11/09 01:40:24;;;;;;;;;;;;;;;12.04;81.90;100138.84;4994465;28;862;-62
2021/11/09 01:42:52;;;;;;;;;;;;;;;12.01;82.50;100150.72;4994410;28;791;-62
2021/11/09 01:45:18;;;;;;;;;;;;;;;11.99;82.59;100151.16;4993039;28;1394;-62
2021/11/09 01:47:45;;;;;;;;;;;;;;;12.08;82.75;100153.47;4994362;28;883;-61
2021/11/09 01:50:15;;;;;;;;;;;;;;;12.10;82.48;100148.31;4992913;28;1898;-62
2021/11/09 01:52:42;;;;;;;;;;;;;;;12.09;82.41;100154.25;4993763;28;834;-62
2021/11/09 01:55:11;;;;;;;;;;;;;;;12.04;82.65;100159.03;4994158;28;839;-62
2021/11/09 01:57:38;;;;;;;;;;;;;;;12.02;82.74;100169.72;4994787;28;760;-62
2021/11/09 02:00:09;;;;;;;;;;;;;;;12.06;82.80;100166.94;4994179;28;867;-62
2021/11/09 02:02:36;;;;;;;;;;;;;;;12.10;82.79;100170.47;4994213;28;806;-62
2021/11/09 02:05:03;;;;;;;;;;;;;;;12.16;82.75;100181.91;4994024;28;819;-62
2021/11/09 02:07:29;;;;;;;;;;;;;;;12.23;82.71;100182.69;4992680;28;846;-62
2021/11/09 02:09:56;;;;;;;;;;;;;;;12.32;82.40;100185.00;4993972;28;791;-62
2021/11/09 02:12:23;;;;;;;;;;;;;;;12.36;82.23;100187.75;4993827;28;1948;-62
2021/11/09 02:14:49;;;;;;;;;;;;;;;12.38;81.86;100190.91;4992539;28;1193;-62
2021/11/09 02:17:16;;;;;;;;;;;;;;;12.40;82.05;100189.31;4993928;28;1102;-62
2021/11/09 02:19:43;;;;;;;;;;;;;;;12.49;81.86;100188.06;4993713;28;1203;-62
2021/11/09 02:22:10;;;;;;;;;;;;;;;12.50;81.47;100184.88;4993782;28;839;-62
2021/11/09 02:24:37;;;;;;;;;;;;;;;12.28;81.61;100155.72;4993736;28;894;-62
2021/11/09 02:27:04;;;;;;;;;;;;;;;12.45;81.42;100179.78;4993700;28;827;-62
2021/11/09 02:29:30;;;;;;;;;;;;;;;12.50;81.53;100182.09;4993759;28;842;-62
2021/11/09 02:31:57;;;;;;;;;;;;;;;12.55;81.31;100183.69;4993710;28;1922;-62
2021/11/09 02:34:24;;;;;;;;;;;;;;;12.58;81.19;100186.41;4993635;28;871;-62
2021/11/09 02:36:50;;;;;;;;;;;;;;;12.66;80.99;100176.84;4994334;28;791;-62
2021/11/09 02:39:17;;;;;;;;;;;;;;;12.70;80.60;100184.38;4993358;28;835;-62
2021/11/09 02:41:44;;;;;;;;;;;;;;;12.69;80.83;100180.78;4992215;28;1252;-62
2021/11/09 02:44:10;;;;;;;;;;;;;;;12.68;80.73;100184.75;4993540;28;871;-62
2021/11/09 02:46:50;;;;;;;;;;;;;;;12.75;80.53;100178.38;4993170;28;803;-62
2021/11/09 02:49:26;;;;;;;;;;;;;;;12.77;80.47;100165.66;4993156;28;839;-62
2021/11/09 02:51:58;;;;;;;;;;;;;;;12.78;80.42;100167.25;4992261;28;1953;-62
2021/11/09 02:54:29;;;;;;;;;;;;;;;12.78;80.43;100178.34;4993365;28;893;-62
2021/11/09 03:01:54;;;;;;;;;;;;;;;12.76;80.39;100185.47;4992858;28;869;-62
2021/11/09 03:04:30;;;;;;;;;;;;;;;12.77;80.36;100179.53;4992150;28;811;-62
2021/11/09 03:07:12;;;;;;;;;;;;;;;12.78;80.30;100181.13;4993104;28;878;-62
2021/11/09 03:09:53;;;;;;;;;;;;;;;12.71;80.23;100180.38;4992750;28;1023;-62
2021/11/09 03:12:21;;;;;;;;;;;;;;;12.68;80.62;100187.53;4992698;28;2055;-62
2021/11/09 03:14:47;;;;;;;;;;;;;;;12.65;80.24;100180.84;4992796;28;878;-62
2021/11/09 03:17:20;;;;;;;;;;;;;;;12.63;80.59;100187.94;4991383;28;1355;-62
2021/11/09 03:19:59;;;;;;;;;;;;;;;12.62;80.44;100197.47;4992520;28;1409;-62
2021/11/09 03:44:51;;;;;;;;;;;;;;;12.62;81.19;100214.13;4992389;28;646;-61
2021/11/09 03:47:19;;;;;;;;;;;;;;;12.65;81.31;100207.75;4992306;28;818;-62
2021/11/09 03:49:47;;;;;;;;;;;;;;;12.65;81.05;100194.69;4991030;28;1350;-62
2021/11/09 03:52:18;;;;;;;;;;;;;;;12.64;80.98;100195.88;4992207;28;1874;-62
2021/11/09 03:54:47;;;;;;;;;;;;;;;12.62;80.94;100194.72;4990887;28;1387;-62
2021/11/09 03:57:28;;;;;;;;;;;;;;;12.61;81.12;100206.97;4992120;28;890;-62
2021/11/09 04:05:12;;;;;;;;;;;;;;;12.68;81.07;100223.59;4992093;28;689;-62
2021/11/09 04:16:20;;;;;;;;;;;;;;;12.70;80.52;100251.72;4961641;28;1278;-62
2021/11/09 04:26:56;;;;;;;;;;;;;;;12.65;80.75;100236.28;4974269;28;721;-62
2021/11/09 05:10:06;;;;;;;;;;;;;;;12.59;81.50;100314.78;4995042;28;646;-62
2021/11/09 05:17:58;;;;;;;;;;;;;;;12.56;81.78;100312.78;5945704;23;1597;-62
2021/11/09 05:20:25;;;;;;;;;;;;;;;12.52;81.69;100314.78;4975685;28;893;-61
2021/11/09 05:22:51;;;;;;;;;;;;;;;12.52;81.87;100304.47;4975722;28;858;-61
2021/11/09 05:25:18;;;;;;;;;;;;;;;12.53;81.96;100310.84;4974068;28;885;-61
2021/11/09 05:27:46;;;;;;;;;;;;;;;12.55;81.86;100314.00;4974410;28;818;-61
2021/11/09 05:30:15;;;;;;;;;;;;;;;12.50;82.31;100301.31;4975323;28;823;-61
2021/11/09 05:32:42;;;;;;;;;;;;;;;12.50;82.08;100309.63;4975475;28;815;-61
2021/11/09 05:35:09;;;;;;;;;;;;;;;12.51;82.43;100322.31;4975761;28;875;-61
2021/11/09 05:37:43;;;;;;;;;;;;;;;12.51;82.12;100333.41;4975315;28;787;-62
2021/11/09 05:40:09;;;;;;;;;;;;;;;12.51;82.47;100335.41;4975096;28;807;-61
2021/11/09 05:42:36;;;;;;;;;;;;;;;12.48;82.57;100339.75;4975141;28;878;-61
2021/11/09 05:45:03;;;;;;;;;;;;;;;12.48;83.17;100341.72;4975022;28;882;-61
2021/11/09 05:47:30;;;;;;;;;;;;;;;12.42;83.49;100344.16;4974806;28;800;-61
2021/11/09 05:49:56;;;;;;;;;;;;;;;12.40;83.38;100341.00;4974929;28;847;-61
2021/11/09 05:52:22;;;;;;;;;;;;;;;12.36;83.58;100352.09;4974776;28;1959;-62
2021/11/09 05:54:49;;;;;;;;;;;;;;;12.36;83.90;100342.97;4974950;28;910;-61
2021/11/09 05:57:16;;;;;;;;;;;;;;;12.34;84.04;100342.59;4974769;28;884;-62
2021/11/09 05:59:43;;;;;;;;;;;;;;;12.31;84.21;100341.41;4974948;28;854;-61
2021/11/09 06:02:10;;;;;;;;;;;;;;;12.34;83.82;100340.59;4957313;28;1209;-62
2021/11/09 06:04:35;;;;;;;;;;;;;;;12.36;83.70;100346.53;4974609;28;835;-61
2021/11/09 06:07:02;;;;;;;;;;;;;;;12.41;83.77;100348.88;4974609;28;878;-61
2021/11/09 06:09:28;;;;;;;;;;;;;;;12.44;83.56;100353.66;4974552;28;779;-62
2021/11/09 06:11:55;;;;;;;;;;;;;;;12.51;83.44;100361.13;4957098;28;1957;-61
2021/11/09 06:14:22;;;;;;;;;;;;;;;12.58;83.29;100349.22;4974491;28;870;-61
2021/11/09 06:16:48;;;;;;;;;;;;;;;12.61;83.29;100345.63;4974393;28;878;-62
2021/11/09 06:19:15;;;;;;;;;;;;;;;12.66;83.29;100353.56;4994966;28;1377;-61
2021/11/09 06:21:42;;;;;;;;;;;;;;;12.71;82.88;100361.44;5013467;28;863;-62
2021/11/09 06:24:08;;;;;;;;;;;;;;;12.82;83.06;100366.94;5013497;28;803;-61
2021/11/09 06:26:35;;;;;;;;;;;;;;;12.93;82.71;100366.88;4995909;28;1208;-61
2021/11/09 06:29:02;;;;;;;;;;;;;;;13.07;82.42;100372.34;4995856;28;1363;-61
2021/11/09 06:31:29;;;;;;;;;;;;;;;13.18;81.93;100377.84;5013303;28;1921;-61
2021/11/09 06:33:56;;;;;;;;;;;;;;;13.24;81.80;100378.97;5013279;28;875;-61
2021/11/09 06:36:23;;;;;;;;;;;;;;;13.37;81.65;100379.31;5013314;28;823;-61
2021/11/09 06:38:49;;;;;;;;;;;;;;;13.51;81.16;100368.13;5013149;28;811;-61
2021/11/09 06:41:16;;;;;;;;;;;;;;;13.70;80.58;100364.00;4995825;28;870;-61
2021/11/09 06:43:42;;;;;;;;;;;;;;;13.80;80.30;100359.53;5013209;28;847;-61
2021/11/09 06:46:08;;;;;;;;;;;;;;;13.93;79.94;100370.91;5012792;28;873;-61
2021/11/09 06:48:34;;;;;;;;;;;;;;;14.11;79.47;100367.97;5012741;28;855;-61
2021/11/09 06:51:03;;;;;;;;;;;;;;;14.27;78.93;100373.75;5012725;28;1953;-61
2021/11/09 06:53:29;;;;;;;;;;;;;;;14.30;78.26;100372.94;5012747;28;863;-61
2021/11/09 06:55:57;;;;;;;;;;;;;;;14.28;78.07;100369.78;5012669;28;885;-61
2021/11/09 06:58:23;;;;;;;;;;;;;;;14.29;78.06;100374.13;5012637;28;851;-61
2021/11/09 07:00:50;;;;;;;;;;;;;;;14.20;77.79;100371.06;5012601;28;810;-61
2021/11/09 07:03:16;;;;;;;;;;;;;;;14.12;78.05;100373.09;5012746;28;869;-61
2021/11/09 07:05:44;;;;;;;;;;;;;;;14.06;77.74;100386.69;5012767;28;886;-61
2021/11/09 07:08:10;;;;;;;;;;;;;;;13.99;77.99;100381.19;5012783;28;866;-62
2021/11/09 07:10:37;;;;;;;;;;;;;;;13.88;77.92;100383.28;5012343;28;1953;-61
2021/11/09 07:13:04;;;;;;;;;;;;;;;13.79;78.17;100382.97;5012567;28;818;-61
2021/11/09 07:15:31;;;;;;;;;;;;;;;13.77;78.17;100380.59;5012421;28;850;-61
2021/11/09 07:17:57;;;;;;;;;;;;;;;13.76;78.18;100394.88;4994709;28;1323;-61
2021/11/09 07:20:24;;;;;;;;;;;;;;;13.76;78.27;100395.69;4991406;28;1324;-61
2021/11/09 07:22:50;;;;;;;;;;;;;;;13.77;78.21;100394.47;4992589;28;863;-62
2021/11/09 07:25:17;;;;;;;;;;;;;;;13.83;78.18;100401.19;4992540;28;865;-61
2021/11/09 07:27:43;;;;;;;;;;;;;;;13.87;78.00;100393.59;4992569;28;858;-62
2021/11/09 07:30:11;;;;;;;;;;;;;;;13.86;78.13;100388.44;4992498;28;834;-61
2021/11/09 07:32:39;;;;;;;;;;;;;;;13.87;78.04;100390.81;4992423;28;1995;-61
2021/11/09 07:35:06;;;;;;;;;;;;;;;13.85;78.11;100392.44;4975059;28;866;-62
2021/11/09 07:37:33;;;;;;;;;;;;;;;13.77;78.44;100397.25;4992514;28;898;-61
2021/11/09 07:40:00;;;;;;;;;;;;;;;13.73;78.61;100392.94;4992463;28;929;-61
2021/11/09 07:42:27;;;;;;;;;;;;;;;13.71;78.63;100385.00;4992370;28;859;-61
2021/11/09 07:44:54;;;;;;;;;;;;;;;13.68;78.60;100391.41;4992281;28;807;-61
2021/11/09 07:47:21;;;;;;;;;;;;;;;13.71;78.86;100373.91;4992451;28;837;-61
2021/11/09 07:49:47;;;;;;;;;;;;;;;13.80;78.70;100379.75;4992015;28;918;-62
2021/11/09 07:52:14;;;;;;;;;;;;;;;13.84;78.54;100383.28;4992100;28;1940;-61
2021/11/09 07:54:44;;;;;;;;;;;;;;;13.90;78.35;100392.00;4974798;28;1209;-61
2021/11/09 07:57:14;;;;;;;;;;;;;;;13.93;78.52;100387.59;4992167;28;792;-61
2021/11/09 07:59:51;;;;;;;;;;;;;;;13.93;78.39;100388.38;4992748;28;830;-61
2021/11/09 08:02:32;;;;;;;;;;;;;;;13.67;79.55;100401.69;4992173;28;870;-61
2021/11/09 08:05:08;;;;;;;;;;;;;;;13.20;81.43;100412.31;4992267;28;850;-61
2021/11/09 08:07:50;;;;;;;;;;;;;;;12.82;83.87;100417.69;4992101;28;889;-61
2021/11/09 08:10:17;;;;;;;;;;;;;;;12.54;84.92;100412.22;4992097;28;803;-61
2021/11/09 08:12:43;;;;;;;;;;;;;;;12.38;85.49;100419.00;4991945;28;1886;-61
2021/11/09 08:15:09;;;;;;;;;;;;;;;12.28;85.60;100419.81;4991918;28;898;-61
2021/11/09 08:17:36;;;;;;;;;;;;;;;12.14;86.17;100422.59;4992100;28;1397;-61
2021/11/09 08:20:01;;;;;;;;;;;;;;;12.10;86.17;100422.63;4991852;28;1393;-61
2021/11/09 08:22:28;;;;;;;;;;;;;;;12.08;86.62;100429.72;4992038;28;878;-61
2021/11/09 08:24:54;;;;;;;;;;;;;;;12.07;86.71;100428.16;4992026;28;800;-61
2021/11/09 08:27:21;;;;;;;;;;;;;;;12.10;87.16;100428.16;4992033;28;774;-61
2021/11/09 08:29:51;;;;;;;;;;;;;;;12.10;86.89;100433.72;4992366;28;787;-61
2021/11/09 08:32:20;;;;;;;;;;;;;;;12.07;86.92;100425.38;4991825;28;1907;-61
2021/11/09 08:34:47;;;;;;;;;;;;;;;12.04;87.59;100433.31;4991835;28;853;-61
2021/11/09 08:37:13;;;;;;;;;;;;;;;12.04;87.38;100436.06;4991863;28;921;-61
2021/11/09 08:39:42;;;;;;;;;;;;;;;12.07;87.89;100445.56;4991918;28;877;-61
